sensor_id;sensor_type;location;lat;lon;timestamp;pressure;altitude;pressure_sealevel;temperature;humidity
21357;BME280;10836;53.068;18.234;2023-02-16T00:00:22;101907.72;;;-3.52;100.00
21357;BME280;10836;53.068;18.234;2023-02-16T00:03:17;101903.66;;;-3.56;100.00
21357;BME280;10836;53.068;18.234;2023-02-16T00:05:46;101903.66;;;-3.56;100.00
21357;BME280;10836;53.068;18.234;2023-02-16T00:08:13;101902.69;;;-3.55;100.00
21357;BME280;10836;53.068;18.234;2023-02-16T00:10:40;101898.31;;;-3.56;100.00
21357;BME280;10836;53.068;18.234;2023-02-16T00:13:33;101909.31;;;-3.59;100.00
21357;BME280;10836;53.068;18.234;2023-02-16T00:16:20;101895.66;;;-3.56;100.00
21357;BME280;10836;53.068;18.234;2023-02-16T00:18:48;101891.81;;;-3.71;100.00
21357;BME280;10836;53.068;18.234;2023-02-16T00:21:16;101886.78;;;-3.74;100.00
21357;BME280;10836;53.068;18.234;2023-02-16T00:23:44;101896.88;;;-3.68;100.00
21357;BME280;10836;53.068;18.234;2023-02-16T00:26:21;101886.47;;;-3.71;100.00
21357;BME280;10836;53.068;18.234;2023-02-16T00:28:53;101886.00;;;-3.84;100.00
21357;BME280;10836;53.068;18.234;2023-02-16T00:31:25;101872.28;;;-3.89;100.00
21357;BME280;10836;53.068;18.234;2023-02-16T00:33:54;101872.75;;;-3.76;100.00
21357;BME280;10836;53.068;18.234;2023-02-16T00:36:22;101875.50;;;-3.68;100.00
21357;BME280;10836;53.068;18.234;2023-02-16T00:38:49;101873.53;;;-3.66;100.00
21357;BME280;10836;53.068;18.234;2023-02-16T00:41:23;101868.19;;;-3.66;100.00
21357;BME280;10836;53.068;18.234;2023-02-16T00:44:22;101863.16;;;-3.69;100.00
21357;BME280;10836;53.068;18.234;2023-02-16T00:46:53;101866.81;;;-3.70;100.00
21357;BME280;10836;53.068;18.234;2023-02-16T00:49:21;101864.84;;;-3.68;100.00
21357;BME280;10836;53.068;18.234;2023-02-16T00:51:48;101864.22;;;-3.80;100.00
21357;BME280;10836;53.068;18.234;2023-02-16T00:54:15;101865.03;;;-3.79;100.00
21357;BME280;10836;53.068;18.234;2023-02-16T00:56:44;101868.09;;;-3.74;100.00
21357;BME280;10836;53.068;18.234;2023-02-16T00:59:17;101855.66;;;-3.83;100.00
21357;BME280;10836;53.068;18.234;2023-02-16T01:01:46;101853.59;;;-3.89;100.00
21357;BME280;10836;53.068;18.234;2023-02-16T01:04:21;101842.56;;;-3.94;100.00
21357;BME280;10836;53.068;18.234;2023-02-16T01:06:49;101846.91;;;-3.93;100.00
21357;BME280;10836;53.068;18.234;2023-02-16T01:09:35;101843.94;;;-3.90;100.00
21357;BME280;10836;53.068;18.234;2023-02-16T01:12:21;101829.91;;;-3.92;100.00
21357;BME280;10836;53.068;18.234;2023-02-16T01:14:52;101833.56;;;-3.93;100.00
21357;BME280;10836;53.068;18.234;2023-02-16T01:17:22;101834.25;;;-3.91;100.00
21357;BME280;10836;53.068;18.234;2023-02-16T01:19:52;101837.22;;;-3.94;100.00
21357;BME280;10836;53.068;18.234;2023-02-16T01:22:19;101830.91;;;-3.93;100.00
21357;BME280;10836;53.068;18.234;2023-02-16T01:24:46;101822.91;;;-3.93;100.00
21357;BME280;10836;53.068;18.234;2023-02-16T01:27:13;101824.25;;;-3.89;100.00
21357;BME280;10836;53.068;18.234;2023-02-16T01:29:43;101821.97;;;-3.84;100.00
21357;BME280;10836;53.068;18.234;2023-02-16T01:32:13;101827.59;;;-3.87;100.00
21357;BME280;10836;53.068;18.234;2023-02-16T01:34:40;101819.59;;;-3.87;100.00
21357;BME280;10836;53.068;18.234;2023-02-16T01:37:13;101812.75;;;-3.90;100.00
21357;BME280;10836;53.068;18.234;2023-02-16T01:39:42;101802.25;;;-3.91;100.00
21357;BME280;10836;53.068;18.234;2023-02-16T01:42:19;101799.56;;;-3.91;100.00
21357;BME280;10836;53.068;18.234;2023-02-16T01:44:52;101794.69;;;-3.96;100.00
21357;BME280;10836;53.068;18.234;2023-02-16T01:49:54;101784.69;;;-4.12;100.00
21357;BME280;10836;53.068;18.234;2023-02-16T01:52:31;101782.94;;;-4.21;100.00
21357;BME280;10836;53.068;18.234;2023-02-16T01:57:46;101769.38;;;-4.10;100.00
21357;BME280;10836;53.068;18.234;2023-02-16T02:00:28;101773.94;;;-4.20;100.00
21357;BME280;10836;53.068;18.234;2023-02-16T02:02:59;101773.34;;;-4.14;100.00
21357;BME280;10836;53.068;18.234;2023-02-16T02:05:47;101778.66;;;-4.14;100.00
21357;BME280;10836;53.068;18.234;2023-02-16T02:08:24;101777.69;;;-4.13;100.00
21357;BME280;10836;53.068;18.234;2023-02-16T02:11:02;101770.22;;;-4.09;100.00
21357;BME280;10836;53.068;18.234;2023-02-16T02:13:57;101778.38;;;-4.11;100.00
21357;BME280;10836;53.068;18.234;2023-02-16T02:16:27;101786.06;;;-4.08;100.00
21357;BME280;10836;53.068;18.234;2023-02-16T02:18:55;101778.06;;;-4.08;100.00
21357;BME280;10836;53.068;18.234;2023-02-16T02:21:51;101768.78;;;-4.04;100.00
21357;BME280;10836;53.068;18.234;2023-02-16T02:28:00;101747.50;;;-4.13;100.00
21357;BME280;10836;53.068;18.234;2023-02-16T02:33:19;101749.63;;;-4.17;100.00
21357;BME280;10836;53.068;18.234;2023-02-16T02:36:17;101748.25;;;-4.21;100.00
21357;BME280;10836;53.068;18.234;2023-02-16T02:39:29;101740.41;;;-4.22;100.00
21357;BME280;10836;53.068;18.234;2023-02-16T02:42:10;101730.88;;;-4.25;100.00
21357;BME280;10836;53.068;18.234;2023-02-16T02:44:49;101735.53;;;-4.27;100.00
21357;BME280;10836;53.068;18.234;2023-02-16T02:47:19;101725.94;;;-4.20;100.00
21357;BME280;10836;53.068;18.234;2023-02-16T02:49:53;101735.16;;;-4.14;100.00
21357;BME280;10836;53.068;18.234;2023-02-16T02:52:21;101734.06;;;-4.21;100.00
21357;BME280;10836;53.068;18.234;2023-02-16T02:54:49;101731.66;;;-4.15;100.00
21357;BME280;10836;53.068;18.234;2023-02-16T02:57:39;101735.00;;;-4.13;100.00
21357;BME280;10836;53.068;18.234;2023-02-16T03:00:35;101727.06;;;-4.05;100.00
21357;BME280;10836;53.068;18.234;2023-02-16T03:03:38;101717.69;;;-4.09;100.00
21357;BME280;10836;53.068;18.234;2023-02-16T03:06:12;101719.31;;;-3.98;100.00
21357;BME280;10836;53.068;18.234;2023-02-16T03:08:43;101720.97;;;-3.97;100.00
21357;BME280;10836;53.068;18.234;2023-02-16T03:11:17;101719.53;;;-3.91;100.00
21357;BME280;10836;53.068;18.234;2023-02-16T03:14:13;101717.50;;;-3.89;100.00
21357;BME280;10836;53.068;18.234;2023-02-16T03:16:44;101721.25;;;-3.82;100.00
21357;BME280;10836;53.068;18.234;2023-02-16T03:19:16;101724.22;;;-3.85;100.00
21357;BME280;10836;53.068;18.234;2023-02-16T03:22:03;101718.53;;;-3.90;100.00
21357;BME280;10836;53.068;18.234;2023-02-16T03:24:49;101723.53;;;-3.87;100.00
21357;BME280;10836;53.068;18.234;2023-02-16T03:27:39;101727.53;;;-3.91;100.00
21357;BME280;10836;53.068;18.234;2023-02-16T03:30:28;101727.03;;;-3.87;100.00
21357;BME280;10836;53.068;18.234;2023-02-16T03:32:56;101724.53;;;-3.88;100.00
21357;BME280;10836;53.068;18.234;2023-02-16T03:35:23;101724.53;;;-3.88;100.00
21357;BME280;10836;53.068;18.234;2023-02-16T03:37:50;101701.19;;;-3.86;100.00
21357;BME280;10836;53.068;18.234;2023-02-16T03:40:17;101704.84;;;-3.87;100.00
21357;BME280;10836;53.068;18.234;2023-02-16T03:43:05;101701.78;;;-4.00;100.00
21357;BME280;10836;53.068;18.234;2023-02-16T03:45:34;101705.97;;;-4.16;100.00
21357;BME280;10836;53.068;18.234;2023-02-16T03:48:02;101701.38;;;-4.23;100.00
21357;BME280;10836;53.068;18.234;2023-02-16T03:50:30;101699.78;;;-4.16;100.00
21357;BME280;10836;53.068;18.234;2023-02-16T03:52:57;101711.59;;;-4.19;100.00
21357;BME280;10836;53.068;18.234;2023-02-16T03:55:34;101718.31;;;-4.15;100.00
21357;BME280;10836;53.068;18.234;2023-02-16T03:58:02;101710.31;;;-4.15;100.00
21357;BME280;10836;53.068;18.234;2023-02-16T04:00:30;101715.50;;;-4.13;100.00
21357;BME280;10836;53.068;18.234;2023-02-16T04:02:57;101712.59;;;-4.02;100.00
21357;BME280;10836;53.068;18.234;2023-02-16T04:05:25;101713.22;;;-4.08;100.00
21357;BME280;10836;53.068;18.234;2023-02-16T04:07:52;101704.28;;;-4.17;100.00
21357;BME280;10836;53.068;18.234;2023-02-16T04:10:19;101702.38;;;-4.07;100.00
21357;BME280;10836;53.068;18.234;2023-02-16T04:12:46;101705.75;;;-4.05;100.00
21357;BME280;10836;53.068;18.234;2023-02-16T04:15:19;101700.47;;;-3.96;100.00
21357;BME280;10836;53.068;18.234;2023-02-16T04:17:46;101707.88;;;-3.90;100.00
21357;BME280;10836;53.068;18.234;2023-02-16T04:20:20;101704.00;;;-3.88;100.00
21357;BME280;10836;53.068;18.234;2023-02-16T04:22:48;101713.84;;;-3.88;100.00
21357;BME280;10836;53.068;18.234;2023-02-16T04:25:16;101709.50;;;-3.89;100.00
21357;BME280;10836;53.068;18.234;2023-02-16T04:27:45;101700.47;;;-3.96;100.00
21357;BME280;10836;53.068;18.234;2023-02-16T04:30:16;101701.09;;;-4.03;100.00
21357;BME280;10836;53.068;18.234;2023-02-16T04:32:43;101699.25;;;-4.02;100.00
21357;BME280;10836;53.068;18.234;2023-02-16T04:35:11;101700.47;;;-3.96;100.00
21357;BME280;10836;53.068;18.234;2023-02-16T04:37:38;101701.16;;;-3.94;100.00
21357;BME280;10836;53.068;18.234;2023-02-16T04:40:06;101705.19;;;-3.90;100.00
21357;BME280;10836;53.068;18.234;2023-02-16T04:42:33;101707.50;;;-3.95;100.00
21357;BME280;10836;53.068;18.234;2023-02-16T04:45:00;101707.50;;;-3.95;100.00
21357;BME280;10836;53.068;18.234;2023-02-16T04:47:27;101697.97;;;-3.98;100.00
21357;BME280;10836;53.068;18.234;2023-02-16T04:49:54;101697.44;;;-4.02;100.00
21357;BME280;10836;53.068;18.234;2023-02-16T04:52:21;101696.16;;;-3.89;100.00
21357;BME280;10836;53.068;18.234;2023-02-16T04:54:48;101697.13;;;-3.98;100.00
21357;BME280;10836;53.068;18.234;2023-02-16T04:57:15;101699.72;;;-4.07;100.00
21357;BME280;10836;53.068;18.234;2023-02-16T04:59:43;101697.97;;;-4.16;100.00
21357;BME280;10836;53.068;18.234;2023-02-16T05:02:09;101695.00;;;-4.13;100.00
21357;BME280;10836;53.068;18.234;2023-02-16T05:04:37;101687.00;;;-4.13;100.00
21357;BME280;10836;53.068;18.234;2023-02-16T05:07:03;101678.00;;;-4.12;100.00
21357;BME280;10836;53.068;18.234;2023-02-16T05:09:30;101679.81;;;-4.12;100.00
21357;BME280;10836;53.068;18.234;2023-02-16T05:11:57;101670.00;;;-4.12;100.00
21357;BME280;10836;53.068;18.234;2023-02-16T05:14:43;101672.28;;;-4.17;100.00
21357;BME280;10836;53.068;18.234;2023-02-16T05:17:21;101674.94;;;-4.17;100.00
21357;BME280;10836;53.068;18.234;2023-02-16T05:19:52;101681.59;;;-4.21;100.00
21357;BME280;10836;53.068;18.234;2023-02-16T05:22:19;101672.97;;;-4.15;100.00
21357;BME280;10836;53.068;18.234;2023-02-16T05:24:47;101672.59;;;-4.20;100.00
21357;BME280;10836;53.068;18.234;2023-02-16T05:27:24;101673.50;;;-4.29;100.00
21357;BME280;10836;53.068;18.234;2023-02-16T05:29:52;101663.91;;;-4.22;100.00
21357;BME280;10836;53.068;18.234;2023-02-16T05:32:19;101673.50;;;-4.29;100.00
21357;BME280;10836;53.068;18.234;2023-02-16T05:34:47;101668.47;;;-4.32;100.00
21357;BME280;10836;53.068;18.234;2023-02-16T05:37:15;101654.78;;;-4.37;100.00
21357;BME280;10836;53.068;18.234;2023-02-16T05:39:43;101657.75;;;-4.40;100.00
21357;BME280;10836;53.068;18.234;2023-02-16T05:42:10;101666.78;;;-4.33;100.00
21357;BME280;10836;53.068;18.234;2023-02-16T05:44:37;101658.34;;;-4.28;100.00
21357;BME280;10836;53.068;18.234;2023-02-16T05:47:04;101660.66;;;-4.51;100.00
21357;BME280;10836;53.068;18.234;2023-02-16T05:49:31;101657.22;;;-4.44;100.00
21357;BME280;10836;53.068;18.234;2023-02-16T05:51:58;101660.97;;;-4.37;100.00
21357;BME280;10836;53.068;18.234;2023-02-16T05:54:25;101661.34;;;-4.49;100.00
21357;BME280;10836;53.068;18.234;2023-02-16T05:56:53;101665.00;;;-4.50;100.00
21357;BME280;10836;53.068;18.234;2023-02-16T05:59:21;101663.00;;;-4.48;100.00
21357;BME280;10836;53.068;18.234;2023-02-16T06:01:48;101670.03;;;-4.47;100.00
21357;BME280;10836;53.068;18.234;2023-02-16T06:04:19;101664.84;;;-4.49;100.00
21357;BME280;10836;53.068;18.234;2023-02-16T06:06:46;101661.63;;;-4.52;100.00
21357;BME280;10836;53.068;18.234;2023-02-16T06:09:14;101663.31;;;-4.51;100.00
21357;BME280;10836;53.068;18.234;2023-02-16T06:11:41;101662.47;;;-4.52;100.00
21357;BME280;10836;53.068;18.234;2023-02-16T06:14:12;101663.31;;;-4.51;100.00
21357;BME280;10836;53.068;18.234;2023-02-16T06:16:42;101665.97;;;-4.51;100.00
21357;BME280;10836;53.068;18.234;2023-02-16T06:19:10;101654.34;;;-4.50;100.00
21357;BME280;10836;53.068;18.234;2023-02-16T06:21:38;101660.44;;;-4.40;100.00
21357;BME280;10836;53.068;18.234;2023-02-16T06:24:06;101661.63;;;-4.52;100.00
21357;BME280;10836;53.068;18.234;2023-02-16T06:26:33;101666.03;;;-4.79;100.00
21357;BME280;10836;53.068;18.234;2023-02-16T06:29:01;101669.00;;;-4.82;100.00
21357;BME280;10836;53.068;18.234;2023-02-16T06:31:28;101668.03;;;-4.63;100.00
21357;BME280;10836;53.068;18.234;2023-02-16T06:33:55;101666.38;;;-4.46;100.00
21357;BME280;10836;53.068;18.234;2023-02-16T06:36:23;101663.31;;;-4.51;100.00
21357;BME280;10836;53.068;18.234;2023-02-16T06:38:51;101668.66;;;-4.51;100.00
21357;BME280;10836;53.068;18.234;2023-02-16T06:41:18;101665.50;;;-4.29;100.00
21357;BME280;10836;53.068;18.234;2023-02-16T06:43:59;101668.56;;;-4.24;100.00
21357;BME280;10836;53.068;18.234;2023-02-16T06:46:26;101666.25;;;-4.19;100.00
21357;BME280;10836;53.068;18.234;2023-02-16T06:48:53;101664.22;;;-4.25;100.00
21357;BME280;10836;53.068;18.234;2023-02-16T06:51:20;101674.94;;;-4.17;100.00
21357;BME280;10836;53.068;18.234;2023-02-16T06:53:47;101667.88;;;-4.26;100.00
21357;BME280;10836;53.068;18.234;2023-02-16T06:56:15;101658.72;;;-4.06;100.00
21357;BME280;10836;53.068;18.234;2023-02-16T06:58:42;101665.31;;;-3.66;100.00
21357;BME280;10836;53.068;18.234;2023-02-16T07:01:09;101662.47;;;-3.39;100.00
21357;BME280;10836;53.068;18.234;2023-02-16T07:03:36;101658.47;;;-3.35;100.00
21357;BME280;10836;53.068;18.234;2023-02-16T07:06:03;101649.72;;;-3.53;100.00
21357;BME280;10836;53.068;18.234;2023-02-16T07:08:30;101647.78;;;-3.35;100.00
21357;BME280;10836;53.068;18.234;2023-02-16T07:10:57;101643.44;;;-3.70;100.00
21357;BME280;10836;53.068;18.234;2023-02-16T07:13:25;101647.41;;;-3.48;100.00
21357;BME280;10836;53.068;18.234;2023-02-16T07:15:51;101642.56;;;-3.02;100.00
21357;BME280;10836;53.068;18.234;2023-02-16T07:18:18;101628.94;;;-2.83;100.00
21357;BME280;10836;53.068;18.234;2023-02-16T07:20:46;101619.94;;;-2.74;100.00
21357;BME280;10836;53.068;18.234;2023-02-16T07:23:17;101636.69;;;-2.63;100.00
21357;BME280;10836;53.068;18.234;2023-02-16T07:25:43;101628.34;;;-2.36;100.00
21357;BME280;10836;53.068;18.234;2023-02-16T07:28:10;101624.97;;;-1.89;100.00
21357;BME280;10836;53.068;18.234;2023-02-16T07:30:37;101624.31;;;-2.08;100.00
21357;BME280;10836;53.068;18.234;2023-02-16T07:33:04;101636.28;;;-1.63;100.00
21357;BME280;10836;53.068;18.234;2023-02-16T07:35:34;101645.47;;;-1.02;100.00
21357;BME280;10836;53.068;18.234;2023-02-16T07:38:03;101639.22;;;-0.63;100.00
21357;BME280;10836;53.068;18.234;2023-02-16T07:40:30;101641.84;;;-0.55;100.00
21357;BME280;10836;53.068;18.234;2023-02-16T07:43:01;101642.06;;;-0.42;100.00
21357;BME280;10836;53.068;18.234;2023-02-16T07:45:29;101638.84;;;-0.15;100.00
21357;BME280;10836;53.068;18.234;2023-02-16T07:47:59;101633.25;;;0.10;100.00
21357;BME280;10836;53.068;18.234;2023-02-16T07:50:26;101630.94;;;0.07;100.00
21357;BME280;10836;53.068;18.234;2023-02-16T07:52:54;101637.03;;;1.18;100.00
21357;BME280;10836;53.068;18.234;2023-02-16T07:55:20;101633.72;;;2.02;100.00
21357;BME280;10836;53.068;18.234;2023-02-16T07:57:48;101635.75;;;2.90;100.00
21357;BME280;10836;53.068;18.234;2023-02-16T08:00:20;101633.72;;;2.57;100.00
21357;BME280;10836;53.068;18.234;2023-02-16T08:02:48;101635.59;;;2.98;100.00
21357;BME280;10836;53.068;18.234;2023-02-16T08:05:15;101634.56;;;2.64;100.00
21357;BME280;10836;53.068;18.234;2023-02-16T08:07:43;101640.84;;;2.72;100.00
21357;BME280;10836;53.068;18.234;2023-02-16T08:10:12;101641.38;;;2.26;100.00
21357;BME280;10836;53.068;18.234;2023-02-16T08:12:39;101632.69;;;3.06;100.00
21357;BME280;10836;53.068;18.234;2023-02-16T08:15:06;101624.44;;;3.14;100.00
21357;BME280;10836;53.068;18.234;2023-02-16T08:17:34;101633.28;;;3.56;100.00
21357;BME280;10836;53.068;18.234;2023-02-16T08:20:03;101631.88;;;3.86;100.00
21357;BME280;10836;53.068;18.234;2023-02-16T08:22:31;101630.00;;;4.07;100.00
21357;BME280;10836;53.068;18.234;2023-02-16T08:24:58;101637.69;;;3.96;100.00
21357;BME280;10836;53.068;18.234;2023-02-16T08:27:25;101641.78;;;3.53;100.00
21357;BME280;10836;53.068;18.234;2023-02-16T08:29:52;101642.44;;;3.68;100.00
21357;BME280;10836;53.068;18.234;2023-02-16T08:32:20;101645.78;;;3.96;100.00
21357;BME280;10836;53.068;18.234;2023-02-16T08:34:46;101636.03;;;4.09;100.00
21357;BME280;10836;53.068;18.234;2023-02-16T08:37:14;101642.44;;;4.47;100.00
21357;BME280;10836;53.068;18.234;2023-02-16T08:39:41;101638.59;;;4.88;100.00
21357;BME280;10836;53.068;18.234;2023-02-16T08:42:10;101639.28;;;5.21;100.00
21357;BME280;10836;53.068;18.234;2023-02-16T08:44:39;101638.97;;;4.98;100.00
21357;BME280;10836;53.068;18.234;2023-02-16T08:47:07;101646.28;;;5.42;100.00
21357;BME280;10836;53.068;18.234;2023-02-16T08:49:35;101638.25;;;5.22;100.00
21357;BME280;10836;53.068;18.234;2023-02-16T08:52:02;101639.22;;;4.83;100.00
21357;BME280;10836;53.068;18.234;2023-02-16T08:54:30;101636.44;;;4.32;100.00
21357;BME280;10836;53.068;18.234;2023-02-16T08:56:59;101650.75;;;4.65;100.00
21357;BME280;10836;53.068;18.234;2023-02-16T08:59:28;101641.50;;;4.93;100.00
21357;BME280;10836;53.068;18.234;2023-02-16T09:01:56;101642.50;;;5.05;100.00
21357;BME280;10836;53.068;18.234;2023-02-16T09:04:24;101637.06;;;5.12;100.00
21357;BME280;10836;53.068;18.234;2023-02-16T09:06:54;101638.38;;;4.96;100.00
21357;BME280;10836;53.068;18.234;2023-02-16T09:09:21;101646.28;;;4.97;100.00
21357;BME280;10836;53.068;18.234;2023-02-16T09:11:49;101641.06;;;4.96;100.00
21357;BME280;10836;53.068;18.234;2023-02-16T09:14:19;101638.38;;;5.41;100.00
21357;BME280;10836;53.068;18.234;2023-02-16T09:16:47;101633.03;;;6.22;100.00
21357;BME280;10836;53.068;18.234;2023-02-16T09:19:17;101637.94;;;5.75;100.00
21357;BME280;10836;53.068;18.234;2023-02-16T09:21:45;101639.59;;;6.08;100.00
21357;BME280;10836;53.068;18.234;2023-02-16T09:24:13;101639.13;;;5.92;100.00
21357;BME280;10836;53.068;18.234;2023-02-16T09:26:40;101642.88;;;6.59;100.00
21357;BME280;10836;53.068;18.234;2023-02-16T09:29:12;101641.41;;;6.82;100.00
21357;BME280;10836;53.068;18.234;2023-02-16T09:31:41;101645.75;;;6.64;100.00
21357;BME280;10836;53.068;18.234;2023-02-16T09:34:21;101647.38;;;6.29;100.00
21357;BME280;10836;53.068;18.234;2023-02-16T09:36:48;101641.59;;;6.44;100.00
21357;BME280;10836;53.068;18.234;2023-02-16T09:39:16;101650.56;;;5.94;100.00
21357;BME280;10836;53.068;18.234;2023-02-16T09:42:10;101646.81;;;6.63;100.00
21357;BME280;10836;53.068;18.234;2023-02-16T09:44:56;101644.22;;;6.50;100.00
21357;BME280;10836;53.068;18.234;2023-02-16T09:47:29;101641.00;;;5.92;100.00
21357;BME280;10836;53.068;18.234;2023-02-16T09:49:59;101629.25;;;6.23;100.00
21357;BME280;10836;53.068;18.234;2023-02-16T09:52:37;101630.63;;;6.75;100.00
21357;BME280;10836;53.068;18.234;2023-02-16T09:55:12;101633.56;;;6.92;99.53
21357;BME280;10836;53.068;18.234;2023-02-16T09:58:00;101637.00;;;6.99;98.97
21357;BME280;10836;53.068;18.234;2023-02-16T10:08:28;101628.28;;;8.63;88.10
21357;BME280;10836;53.068;18.234;2023-02-16T10:13:38;101632.25;;;8.73;88.94
21357;BME280;10836;53.068;18.234;2023-02-16T10:16:14;101623.25;;;8.84;87.82
21357;BME280;10836;53.068;18.234;2023-02-16T10:18:47;101620.09;;;10.06;84.94
21357;BME280;10836;53.068;18.234;2023-02-16T10:21:22;101629.81;;;10.30;78.26
21357;BME280;10836;53.068;18.234;2023-02-16T10:24:02;101617.28;;;10.68;78.98
21357;BME280;10836;53.068;18.234;2023-02-16T10:26:33;101619.19;;;10.89;77.94
21357;BME280;10836;53.068;18.234;2023-02-16T10:29:13;101613.94;;;10.82;75.94
21357;BME280;10836;53.068;18.234;2023-02-16T10:37:11;101609.78;;;10.41;75.46
21357;BME280;10836;53.068;18.234;2023-02-16T10:42:38;101607.81;;;11.73;65.96
21357;BME280;10836;53.068;18.234;2023-02-16T10:47:41;101603.19;;;10.20;70.87
21357;BME280;10836;53.068;18.234;2023-02-16T10:52:54;101614.94;;;9.02;77.22
21357;BME280;10836;53.068;18.234;2023-02-16T10:55:23;101608.41;;;9.03;75.58
21357;BME280;10836;53.068;18.234;2023-02-16T10:57:54;101604.06;;;8.79;77.49
21357;BME280;10836;53.068;18.234;2023-02-16T11:00:28;101600.06;;;8.70;78.02
21357;BME280;10836;53.068;18.234;2023-02-16T11:03:01;101600.66;;;8.72;77.10
21357;BME280;10836;53.068;18.234;2023-02-16T11:05:33;101592.94;;;8.92;75.90
21357;BME280;10836;53.068;18.234;2023-02-16T11:08:01;101595.59;;;8.63;76.54
21357;BME280;10836;53.068;18.234;2023-02-16T11:13:33;101586.31;;;8.88;75.46
21357;BME280;10836;53.068;18.234;2023-02-16T11:16:09;101581.16;;;9.31;73.83
21357;BME280;10836;53.068;18.234;2023-02-16T11:18:39;101576.34;;;9.67;72.38
21357;BME280;10836;53.068;18.234;2023-02-16T11:21:09;101575.16;;;10.25;71.53
21357;BME280;10836;53.068;18.234;2023-02-16T11:23:42;101576.47;;;10.61;67.14
21357;BME280;10836;53.068;18.234;2023-02-16T11:28:41;101579.38;;;9.54;69.03
21357;BME280;10836;53.068;18.234;2023-02-16T11:31:31;101573.97;;;8.97;71.08
21357;BME280;10836;53.068;18.234;2023-02-16T11:34:01;101573.97;;;8.97;72.39
21357;BME280;10836;53.068;18.234;2023-02-16T11:36:38;101578.88;;;8.72;74.22
21357;BME280;10836;53.068;18.234;2023-02-16T11:39:23;101567.94;;;9.85;69.40
21357;BME280;10836;53.068;18.234;2023-02-16T11:42:44;101572.81;;;10.94;66.72
21357;BME280;10836;53.068;18.234;2023-02-16T11:44:53;101568.22;;;11.21;65.67
21357;BME280;10836;53.068;18.234;2023-02-16T11:49:49;101566.97;;;11.61;61.98
21357;BME280;10836;53.068;18.234;2023-02-16T11:52:33;101567.06;;;11.44;61.51
21357;BME280;10836;53.068;18.234;2023-02-16T11:55:01;101560.44;;;10.26;66.15
21357;BME280;10836;53.068;18.234;2023-02-16T11:57:33;101561.00;;;10.66;65.00
21357;BME280;10836;53.068;18.234;2023-02-16T12:00:14;101559.56;;;10.42;65.61
21357;BME280;10836;53.068;18.234;2023-02-16T12:08:41;101569.41;;;12.69;60.04
21357;BME280;10836;53.068;18.234;2023-02-16T12:11:37;101555.16;;;12.24;60.85
21357;BME280;10836;53.068;18.234;2023-02-16T12:14:33;101562.31;;;12.78;59.09
21357;BME280;10836;53.068;18.234;2023-02-16T12:20:21;101545.22;;;12.50;58.53
21357;BME280;10836;53.068;18.234;2023-02-16T12:23:07;101537.31;;;12.12;60.21
21357;BME280;10836;53.068;18.234;2023-02-16T12:25:44;101539.19;;;12.58;58.14
21357;BME280;10836;53.068;18.234;2023-02-16T12:28:20;101536.13;;;13.12;57.67
21357;BME280;10836;53.068;18.234;2023-02-16T12:30:59;101525.66;;;12.89;57.99
21357;BME280;10836;53.068;18.234;2023-02-16T12:33:49;101524.94;;;12.56;58.48
21357;BME280;10836;53.068;18.234;2023-02-16T12:36:31;101512.53;;;11.06;61.01
21357;BME280;10836;53.068;18.234;2023-02-16T12:41:46;101500.72;;;11.00;63.71
21357;BME280;10836;53.068;18.234;2023-02-16T12:47:04;101502.56;;;11.48;62.45
21357;BME280;10836;53.068;18.234;2023-02-16T12:49:50;101500.66;;;10.68;64.10
21357;BME280;10836;53.068;18.234;2023-02-16T12:54:55;101494.00;;;11.40;62.47
21357;BME280;10836;53.068;18.234;2023-02-16T12:57:26;101495.25;;;11.27;63.63
21357;BME280;10836;53.068;18.234;2023-02-16T13:00:02;101500.09;;;11.47;62.72
21357;BME280;10836;53.068;18.234;2023-02-16T13:02:35;101491.19;;;10.76;63.83
21357;BME280;10836;53.068;18.234;2023-02-16T13:05:08;101486.22;;;11.26;62.52
21357;BME280;10836;53.068;18.234;2023-02-16T13:07:41;101476.22;;;11.69;62.09
21357;BME280;10836;53.068;18.234;2023-02-16T13:12:57;101485.22;;;12.59;59.78
21357;BME280;10836;53.068;18.234;2023-02-16T13:15:42;101477.38;;;12.78;58.86
21357;BME280;10836;53.068;18.234;2023-02-16T13:18:21;101484.03;;;12.35;59.77
21357;BME280;10836;53.068;18.234;2023-02-16T13:20:52;101490.41;;;12.45;58.09
21357;BME280;10836;53.068;18.234;2023-02-16T13:23:48;101474.13;;;12.23;59.51
21357;BME280;10836;53.068;18.234;2023-02-16T13:26:48;101475.47;;;11.79;60.66
21357;BME280;10836;53.068;18.234;2023-02-16T13:35:07;101480.97;;;12.26;60.09
21357;BME280;10836;53.068;18.234;2023-02-16T13:43:40;101485.09;;;13.01;58.23
21357;BME280;10836;53.068;18.234;2023-02-16T13:46:26;101477.09;;;12.17;60.72
21357;BME280;10836;53.068;18.234;2023-02-16T13:48:54;101472.31;;;12.44;59.89
21357;BME280;10836;53.068;18.234;2023-02-16T13:51:24;101469.50;;;12.29;59.38
21357;BME280;10836;53.068;18.234;2023-02-16T13:53:56;101465.75;;;11.29;62.46
21357;BME280;10836;53.068;18.234;2023-02-16T13:58:59;101475.00;;;11.55;64.14
21357;BME280;10836;53.068;18.234;2023-02-16T14:01:47;101474.22;;;11.91;61.26
21357;BME280;10836;53.068;18.234;2023-02-16T14:09:45;101478.84;;;10.51;65.98
21357;BME280;10836;53.068;18.234;2023-02-16T14:12:29;101482.84;;;10.65;66.06
21357;BME280;10836;53.068;18.234;2023-02-16T14:15:04;101484.19;;;10.63;65.97
21357;BME280;10836;53.068;18.234;2023-02-16T14:17:34;101484.56;;;10.72;65.77
21357;BME280;10836;53.068;18.234;2023-02-16T14:27:59;101482.34;;;10.69;64.92
21357;BME280;10836;53.068;18.234;2023-02-16T14:30:38;101483.00;;;10.32;66.88
21357;BME280;10836;53.068;18.234;2023-02-16T14:35:40;101484.47;;;9.51;70.52